Terminal Aerodrome Forecast
Issued by NWS Wilmington, OH

Current Version | Previous Version | Graphics & Text | Print | Product List | Glossary On
Versions: 1 2 3 4 5 6 7 8 9 10 11 12 13 14 15
000
FTUS41 KILN 301739
TAFILN
TAF
KILN 301739Z 3018/3118 22007KT P6SM VCTS BKN035CB
     FM310100 21003KT P6SM SCT040 SCT100 BKN250
     FM310800 21004KT 4SM BR FEW040 SCT100 SCT250
      TEMPO 3109/3112 2SM BR
     FM311400 24006KT P6SM SCT020 SCT100=

USA.gov is the U.S. government's official web portal to all federal, state and local government web resources and services.